Time;durP1;ratioP1;P1;durP2;ratioP2;P2;SDS_P1;SDS_P2;PMS_P1;PMS_P2;Temp;Humidity;BMP_temperature;BMP_pressure;BME280_temperature;BME280_humidity;BME280_pressure;Samples;Min_cycle;Max_cycle;Signal;HPM_P1;HPM_P2
2022/07/28 00:01:49;;;;;;;;;3.00;3.00;;;;;20.23;37.25;101350.59;5083092;27;45441;-66
2022/07/28 00:04:14;;;;;;;;;5.00;5.00;;;;;20.28;37.72;101352.94;5082278;27;56427;-66
2022/07/28 00:06:40;;;;;;;;;4.00;3.00;;;;;20.31;36.94;101353.56;5082037;27;59268;-66
2022/07/28 00:09:05;;;;;;;;;4.00;3.00;;;;;20.30;36.91;101349.13;5081816;27;67629;-66
2022/07/28 00:11:30;;;;;;;;;4.00;3.67;;;;;20.26;36.71;101344.97;5081861;27;61757;-66
2022/07/28 00:13:56;;;;;;;;;2.00;2.00;;;;;20.23;37.03;101353.31;5081902;27;66355;-67
2022/07/28 00:16:21;;;;;;;;;5.67;4.67;;;;;20.20;37.64;101352.72;5082124;27;61852;-66
2022/07/28 00:18:46;;;;;;;;;4.00;3.33;;;;;20.14;37.67;101345.97;5081940;27;61797;-66
2022/07/28 00:21:12;;;;;;;;;4.67;3.00;;;;;20.10;37.83;101334.59;5081780;27;66753;-66
2022/07/28 00:23:37;;;;;;;;;6.00;4.00;;;;;20.07;37.58;101337.50;5082475;27;45368;-66
2022/07/28 00:26:03;;;;;;;;;6.33;5.00;;;;;20.02;37.99;101336.19;5080857;28;46211;-65
2022/07/28 00:28:28;;;;;;;;;8.33;7.00;;;;;19.97;37.53;101334.72;5082304;27;45328;-66
2022/07/28 00:30:56;;;;;;;;;7.67;6.00;;;;;19.97;37.97;101323.94;5081438;27;63681;-66
2022/07/28 00:33:21;;;;;;;;;6.00;5.00;;;;;19.97;37.52;101320.34;5082317;27;45481;-66
2022/07/28 00:35:47;;;;;;;;;9.00;7.33;;;;;19.98;37.88;101319.38;5081375;27;68457;-66
2022/07/28 00:38:12;;;;;;;;;9.00;7.67;;;;;19.97;37.52;101314.94;5081324;27;64782;-66
2022/07/28 00:43:22;;;;;;;;;6.33;6.33;;;;;19.92;38.32;101306.38;5082059;28;45441;-66
2022/07/28 00:45:47;;;;;;;;;6.67;6.67;;;;;19.87;38.04;101309.47;5080960;27;71814;-66
2022/07/28 00:48:12;;;;;;;;;8.00;6.00;;;;;19.83;38.03;101311.53;5081110;27;65988;-66
2022/07/28 00:50:39;;;;;;;;;7.00;7.00;;;;;19.79;38.94;101306.47;5080774;28;45464;-66
2022/07/28 00:53:06;;;;;;;;;4.33;4.33;;;;;19.72;38.54;101310.66;5082124;28;45344;-66
2022/07/28 00:55:31;;;;;;;;;5.67;5.67;;;;;19.66;38.50;101309.34;5081706;27;46193;-66
2022/07/28 00:57:57;;;;;;;;;10.00;8.00;;;;;19.63;39.05;101305.03;5080812;27;45370;-66
2022/07/28 01:00:22;;;;;;;;;7.00;5.67;;;;;19.62;38.36;101292.53;5082040;27;45443;-66
2022/07/28 01:02:48;;;;;;;;;8.33;6.00;;;;;19.63;38.57;101296.06;5080995;27;64066;-66
2022/07/28 01:05:14;;;;;;;;;9.67;8.00;;;;;19.61;38.66;101293.50;5080631;28;75255;-65
2022/07/28 01:08:05;;;;;;;;;10.33;9.33;;;;;19.59;38.62;101294.59;5080291;28;45369;-66
2022/07/28 01:10:45;;;;;;;;;8.67;8.67;;;;;19.59;38.58;101290.06;5070950;28;45476;-66
2022/07/28 01:13:26;;;;;;;;;4.33;4.33;;;;;19.62;38.55;101294.34;5080491;28;45387;-66
2022/07/28 01:15:55;;;;;;;;;11.00;9.33;;;;;19.64;38.66;101287.00;5081488;27;46189;-66
2022/07/28 01:18:24;;;;;;;;;8.33;8.00;;;;;19.63;39.19;101286.16;5080213;28;45380;-66
2022/07/28 01:20:58;;;;;;;;;5.67;5.67;;;;;19.62;38.30;101286.25;5081697;27;45476;-66
2022/07/28 01:23:50;;;;;;;;;9.33;5.00;;;;;19.60;38.88;101278.28;5080248;28;45283;-66
2022/07/28 01:26:30;;;;;;;;;4.00;4.00;;;;;19.56;38.82;101292.16;5078316;28;45354;-65
2022/07/28 01:29:17;;;;;;;;;4.00;4.00;;;;;19.53;38.78;101285.19;5084915;27;45351;-66
2022/07/28 01:31:49;;;;;;;;;5.67;4.00;;;;;19.55;38.81;101291.28;5081209;27;45359;-66
2022/07/28 01:34:26;;;;;;;;;7.00;4.00;;;;;19.56;38.84;101284.91;5080103;28;45809;-66
2022/07/28 01:36:54;;;;;;;;;2.00;2.00;;;;;19.58;38.73;101282.97;5079908;28;45686;-66
2022/07/28 01:39:20;;;;;;;;;4.00;3.00;;;;;19.61;38.66;101276.47;5081268;27;45254;-66
2022/07/28 01:41:47;;;;;;;;;4.00;4.00;;;;;19.63;38.79;101282.59;5079051;28;66059;-66
2022/07/28 01:44:19;;;;;;;;;2.67;2.00;;;;;19.66;38.57;101280.50;5081136;27;45423;-66
2022/07/28 01:46:45;;;;;;;;;3.00;3.00;;;;;19.65;38.67;101286.88;5079725;28;46159;-66
2022/07/28 01:49:11;;;;;;;;;3.00;2.00;;;;;19.66;38.72;101283.19;5079715;28;45375;-66
2022/07/28 01:51:37;;;;;;;;;1.67;1.67;;;;;19.67;38.98;101275.94;5078858;28;69325;-67
2022/07/28 01:54:04;;;;;;;;;1.00;1.00;;;;;19.67;38.46;101282.22;5081102;28;45456;-66
2022/07/28 01:56:31;;;;;;;;;1.00;1.00;;;;;19.66;38.50;101272.41;5079360;28;46482;-66
2022/07/28 01:59:02;;;;;;;;;3.00;2.00;;;;;19.65;38.77;101270.69;5079516;28;45480;-67
2022/07/28 02:01:27;;;;;;;;;1.33;1.33;;;;;19.63;38.89;101269.09;5080973;27;45349;-66
2022/07/28 02:03:53;;;;;;;;;2.00;2.00;;;;;19.62;38.61;101268.25;5080928;27;45299;-67
2022/07/28 02:06:20;;;;;;;;;2.33;1.67;;;;;19.63;38.88;101264.56;5078293;28;74220;-66
2022/07/28 02:08:46;;;;;;;;;2.00;2.00;;;;;19.63;39.10;101267.28;5079140;28;48866;-66
2022/07/28 02:13:57;;;;;;;;;1.00;1.00;;;;;19.64;38.78;101258.16;5080889;28;45306;-66
2022/07/28 02:16:24;;;;;;;;;3.00;2.00;;;;;19.64;39.04;101255.47;5080648;27;45337;-65
2022/07/28 02:18:51;;;;;;;;;2.00;2.00;;;;;19.62;38.94;101259.28;5079414;28;45393;-65
2022/07/28 02:21:17;;;;;;;;;2.00;2.00;;;;;19.57;39.14;101259.66;5079416;28;45612;-65
2022/07/28 02:23:44;;;;;;;;;1.33;1.33;;;;;19.52;39.34;101251.09;5079403;28;45388;-65
2022/07/28 02:26:11;;;;;;;;;3.00;1.67;;;;;19.46;39.96;101249.75;5079060;28;45349;-64
2022/07/28 02:28:38;;;;;;;;;1.00;1.00;;;;;19.42;39.29;101245.56;5079141;28;45487;-64
2022/07/28 02:31:07;;;;;;;;;2.67;2.67;;;;;19.39;39.39;101250.38;5079297;28;45243;-65
2022/07/28 02:33:33;;;;;;;;;1.00;1.00;;;;;19.38;39.67;101252.19;5080606;27;45354;-65
2022/07/28 02:36:12;;;;;;;;;2.00;2.00;;;;;19.39;39.82;101244.97;5080321;28;45433;-65
2022/07/28 02:38:44;;;;;;;;;2.33;2.33;;;;;19.40;39.61;101243.97;5080301;27;45420;-65
2022/07/28 02:41:15;;;;;;;;;1.33;1.33;;;;;19.38;40.09;101236.00;5080131;27;45461;-65
2022/07/28 02:43:43;;;;;;;;;1.33;1.33;;;;;19.34;40.03;101238.09;5079196;28;45362;-65
2022/07/28 02:46:10;;;;;;;;;1.67;1.67;;;;;19.32;39.66;101234.66;5078800;28;46393;-64
2022/07/28 02:48:37;;;;;;;;;2.00;2.00;;;;;19.34;39.90;101237.25;5078936;28;45378;-66
2022/07/28 02:51:02;;;;;;;;;2.00;2.00;;;;;19.34;39.83;101237.25;5079453;27;63994;-65
2022/07/28 02:53:29;;;;;;;;;2.00;2.00;;;;;19.39;39.83;101234.19;5078188;28;65734;-65
2022/07/28 02:55:55;;;;;;;;;3.00;2.00;;;;;19.41;39.74;101240.28;5077562;28;75009;-66
2022/07/28 02:58:22;;;;;;;;;2.00;2.00;;;;;19.38;39.76;101236.00;5078948;28;45421;-66
2022/07/28 03:00:48;;;;;;;;;1.00;1.00;;;;;19.39;40.21;101242.28;5078911;28;45431;-66
2022/07/28 03:03:16;;;;;;;;;2.67;2.67;;;;;19.38;40.06;101248.66;5080317;27;45381;-66
2022/07/28 03:05:41;;;;;;;;;2.00;2.00;;;;;19.34;39.62;101240.78;5079916;27;45461;-66
2022/07/28 03:08:07;;;;;;;;;3.00;3.00;;;;;19.31;39.57;101235.66;5077857;28;57363;-66
2022/07/28 03:10:33;;;;;;;;;2.00;2.00;;;;;19.31;39.73;101232.94;5079983;27;45378;-66
2022/07/28 03:12:59;;;;;;;;;2.00;2.00;;;;;19.31;40.09;101238.34;5079147;27;66375;-66
2022/07/28 03:15:24;;;;;;;;;2.00;1.00;;;;;19.24;39.86;101231.75;5079659;27;47033;-66
2022/07/28 03:17:50;;;;;;;;;0.00;0.00;;;;;19.23;39.96;101240.81;5079890;27;45263;-65
2022/07/28 03:20:15;;;;;;;;;2.00;2.00;;;;;19.20;40.07;101246.44;5080210;27;46008;-64
2022/07/28 03:22:41;;;;;;;;;3.00;2.00;;;;;19.20;39.85;101240.19;5082730;27;64521;-66
2022/07/28 03:25:20;;;;;;;;;1.00;0.00;;;;;19.19;40.53;101244.72;5083298;27;46020;-65
2022/07/28 03:27:47;;;;;;;;;1.00;1.00;;;;;19.19;40.12;101250.13;5081767;28;45525;-66
2022/07/28 03:30:15;;;;;;;;;0.33;0.33;;;;;19.18;40.35;101241.16;5083242;27;45383;-65
2022/07/28 03:32:43;;;;;;;;;1.00;1.00;;;;;19.17;40.24;101231.34;5083345;27;45428;-65
2022/07/28 03:35:09;;;;;;;;;1.00;1.00;;;;;19.17;40.51;101231.34;5081839;28;46201;-65
2022/07/28 03:37:41;;;;;;;;;2.33;2.00;;;;;19.14;40.71;101241.53;5083188;27;45425;-65
2022/07/28 03:40:09;;;;;;;;;1.67;0.67;;;;;19.11;40.54;101234.56;5082106;28;45278;-65
2022/07/28 03:42:34;;;;;;;;;2.00;2.00;;;;;19.08;40.31;101233.94;5082962;27;45517;-66
2022/07/28 03:45:00;;;;;;;;;1.00;1.00;;;;;19.07;40.48;101230.38;5081895;28;74823;-66
2022/07/28 03:47:26;;;;;;;;;2.67;1.67;;;;;19.07;41.16;101230.38;5081047;28;64727;-66
2022/07/28 03:49:51;;;;;;;;;2.00;2.00;;;;;19.07;40.64;101226.81;5083097;27;45819;-67
2022/07/28 03:52:17;;;;;;;;;2.00;2.00;;;;;19.07;40.62;101229.50;5083010;27;45452;-66
2022/07/28 03:54:43;;;;;;;;;1.00;1.00;;;;;19.08;40.34;101236.63;5082898;27;46035;-66
2022/07/28 03:57:08;;;;;;;;;1.00;1.00;;;;;19.10;40.37;101234.66;5082752;27;45736;-66
2022/07/28 03:59:34;;;;;;;;;1.00;1.00;;;;;19.06;40.62;101234.06;5083045;27;45431;-66
2022/07/28 04:01:59;;;;;;;;;1.00;1.00;;;;;19.05;40.65;101237.72;5082134;27;64516;-66
2022/07/28 04:04:24;;;;;;;;;1.33;1.33;;;;;19.06;40.86;101235.88;5081807;27;74690;-66
2022/07/28 04:06:50;;;;;;;;;1.00;1.00;;;;;19.06;40.65;101233.19;5080318;28;72726;-66
2022/07/28 04:09:15;;;;;;;;;3.00;2.00;;;;;19.03;40.75;101239.69;5082023;28;66655;-65
2022/07/28 04:11:41;;;;;;;;;1.33;1.33;;;;;18.99;40.75;101231.00;5082045;27;58083;-65
2022/07/28 04:14:06;;;;;;;;;1.00;1.00;;;;;18.93;40.55;101236.88;5082580;27;46112;-65
2022/07/28 04:16:32;;;;;;;;;1.00;1.00;;;;;18.91;41.03;101233.41;5082708;27;45446;-66
2022/07/28 04:18:58;;;;;;;;;1.00;1.00;;;;;18.91;40.98;101243.34;5082751;28;45393;-66
2022/07/28 04:21:24;;;;;;;;;2.00;2.00;;;;;18.91;40.82;101243.34;5082274;27;45867;-67
2022/07/28 04:23:50;;;;;;;;;1.33;1.33;;;;;18.94;40.72;101240.41;5082236;27;45450;-65
2022/07/28 04:26:16;;;;;;;;;1.67;1.67;;;;;18.94;40.77;101232.31;5082127;27;45305;-67
2022/07/28 04:28:41;;;;;;;;;1.00;1.00;;;;;18.93;40.79;101230.59;5082241;27;45406;-66
2022/07/28 04:31:07;;;;;;;;;1.00;1.00;;;;;18.91;40.96;101221.78;5082321;28;45347;-66
2022/07/28 04:33:32;;;;;;;;;1.00;1.00;;;;;18.94;41.10;101235.00;5081075;27;45453;-65
2022/07/28 04:36:00;;;;;;;;;1.67;1.67;;;;;18.91;41.31;101237.97;5082364;27;45389;-66
2022/07/28 04:38:25;;;;;;;;;2.00;2.00;;;;;18.90;40.93;101229.00;5082400;27;45402;-66
2022/07/28 04:40:51;;;;;;;;;2.00;2.00;;;;;18.95;41.21;101231.34;5082137;27;45307;-66
2022/07/28 04:43:16;;;;;;;;;1.33;1.00;;;;;18.94;41.36;101222.41;5082203;27;45350;-65
2022/07/28 04:45:44;;;;;;;;;1.00;1.00;;;;;18.92;41.37;101224.38;5080831;28;45366;-66
2022/07/28 04:48:11;;;;;;;;;1.00;1.00;;;;;18.90;41.41;101220.06;5082255;27;45438;-66
2022/07/28 04:50:36;;;;;;;;;4.00;2.00;;;;;18.87;41.63;101213.06;5082029;27;45245;-66
2022/07/28 04:53:02;;;;;;;;;3.00;3.00;;;;;18.83;41.36;101219.66;5082095;27;45412;-66
2022/07/28 04:55:27;;;;;;;;;3.33;3.33;;;;;18.80;41.61;101219.91;5081273;27;68640;-66
2022/07/28 04:57:52;;;;;;;;;2.00;2.00;;;;;18.77;41.50;101222.84;5081819;27;45303;-67
2022/07/28 05:00:18;;;;;;;;;3.33;2.00;;;;;18.74;41.62;101226.63;5081180;27;63116;-66
2022/07/28 05:02:44;;;;;;;;;3.00;2.67;;;;;18.74;41.82;101226.63;5081654;27;45303;-66
2022/07/28 05:05:11;;;;;;;;;2.00;1.67;;;;;18.69;41.82;101223.44;5081806;27;45358;-66
2022/07/28 05:07:37;;;;;;;;;2.67;1.00;;;;;18.61;42.26;101226.72;5081624;27;45421;-66
2022/07/28 05:10:04;;;;;;;;;4.00;2.67;;;;;18.59;41.44;101233.19;5081795;27;45286;-66
2022/07/28 05:12:30;;;;;;;;;4.00;2.67;;;;;18.61;41.54;101228.56;5081309;27;45404;-65
2022/07/28 05:14:55;;;;;;;;;2.33;1.33;;;;;18.66;42.15;101229.91;5080616;27;68887;-66
2022/07/28 05:17:20;;;;;;;;;2.00;0.67;;;;;18.72;41.61;101230.41;5081709;27;45398;-66
2022/07/28 05:19:45;;;;;;;;;2.00;2.00;;;;;18.73;42.05;101224.91;5080628;27;70237;-66
2022/07/28 05:22:11;;;;;;;;;2.00;2.00;;;;;18.72;41.59;101225.03;5081023;27;51574;-66
2022/07/28 05:24:36;;;;;;;;;1.00;1.00;;;;;18.73;42.06;101229.44;5080091;28;71998;-66
2022/07/28 05:27:02;;;;;;;;;2.00;2.00;;;;;18.68;41.96;101233.34;5081113;27;45383;-66
2022/07/28 05:29:27;;;;;;;;;1.00;1.00;;;;;18.72;41.80;101238.50;5081701;27;45406;-66
2022/07/28 05:31:53;;;;;;;;;2.00;2.00;;;;;18.75;42.16;101225.66;5079979;27;75516;-66
2022/07/28 05:34:18;;;;;;;;;2.00;2.00;;;;;18.80;41.87;101233.38;5081432;27;45424;-66
2022/07/28 05:36:43;;;;;;;;;2.00;2.00;;;;;18.85;42.13;101228.47;5081171;27;45465;-66
2022/07/28 05:39:09;;;;;;;;;2.00;2.00;;;;;18.92;42.27;101227.06;5080398;27;68218;-66
2022/07/28 05:41:34;;;;;;;;;4.00;1.67;;;;;18.96;41.62;101223.13;5080604;27;56228;-66
2022/07/28 05:44:00;;;;;;;;;4.00;4.00;;;;;19.03;42.07;101214.56;5079883;27;70562;-66
2022/07/28 05:46:26;;;;;;;;;2.00;2.00;;;;;19.07;41.82;101224.97;5080968;27;45642;-67
2022/07/28 05:48:51;;;;;;;;;2.00;2.00;;;;;19.14;41.64;101217.28;5080962;28;45355;-66
2022/07/28 05:51:17;;;;;;;;;3.67;2.00;;;;;19.21;42.11;101221.19;5080880;27;45279;-66
2022/07/28 05:53:42;;;;;;;;;3.00;2.00;;;;;19.26;41.61;101218.97;5080970;27;45613;-66
2022/07/28 05:56:07;;;;;;;;;4.33;3.00;;;;;19.27;41.40;101220.69;5080672;27;45492;-66
2022/07/28 05:58:33;;;;;;;;;1.67;1.67;;;;;19.30;41.28;101215.03;5079911;27;64132;-66
2022/07/28 06:00:59;;;;;;;;;2.00;2.00;;;;;19.33;41.47;101213.94;5079948;27;72137;-67
2022/07/28 06:03:25;;;;;;;;;1.00;1.00;;;;;19.34;41.31;101210.28;5080795;27;45471;-66
2022/07/28 06:05:54;;;;;;;;;2.00;2.00;;;;;19.37;41.50;101211.88;5079764;27;69606;-67
2022/07/28 06:08:19;;;;;;;;;2.00;2.00;;;;;19.39;41.11;101209.91;5080266;27;45386;-67
2022/07/28 06:11:08;;;;;;;;;3.00;3.00;;;;;19.41;41.26;101216.91;5080404;28;45488;-66
2022/07/28 06:13:35;;;;;;;;;3.00;3.00;;;;;19.46;41.15;101216.50;5080522;27;45241;-66
2022/07/28 06:16:01;;;;;;;;;3.33;3.33;;;;;19.53;40.75;101217.75;5080624;27;45326;-67
2022/07/28 06:18:26;;;;;;;;;3.00;3.00;;;;;19.59;40.66;101225.31;5080717;28;45410;-65
2022/07/28 06:20:52;;;;;;;;;3.67;3.67;;;;;19.62;40.58;101224.19;5079609;27;72969;-66
2022/07/28 06:23:20;;;;;;;;;4.33;3.00;;;;;19.70;41.08;101226.28;5080496;27;45512;-66
2022/07/28 06:25:46;;;;;;;;;2.67;2.00;;;;;19.74;40.80;101223.22;5080275;27;45429;-66
2022/07/28 06:28:12;;;;;;;;;2.67;2.67;;;;;19.75;40.63;101222.22;5080692;27;45313;-66
2022/07/28 06:30:37;;;;;;;;;4.00;2.33;;;;;19.79;40.77;101212.03;5080207;27;47059;-66
2022/07/28 06:33:04;;;;;;;;;2.67;2.67;;;;;19.87;40.74;101220.41;5079327;27;72136;-65
2022/07/28 06:35:31;;;;;;;;;3.00;3.00;;;;;19.98;40.96;101223.03;5080659;27;45283;-66
2022/07/28 06:37:56;;;;;;;;;3.00;3.00;;;;;20.07;40.48;101220.56;5080350;27;45338;-66
2022/07/28 06:40:22;;;;;;;;;2.67;2.67;;;;;20.16;40.74;101223.34;5079168;27;71444;-66
2022/07/28 06:42:48;;;;;;;;;2.00;1.00;;;;;20.27;40.34;101225.16;5080014;27;45343;-66
2022/07/28 06:45:14;;;;;;;;;2.67;2.67;;;;;20.40;39.76;101230.38;5080159;27;45380;-67
2022/07/28 06:47:39;;;;;;;;;0.33;0.00;;;;;20.50;39.88;101225.03;5079855;27;45422;-67
2022/07/28 06:50:06;;;;;;;;;4.00;2.33;;;;;20.60;39.00;101225.97;5079919;27;45946;-67
2022/07/28 06:52:32;;;;;;;;;3.67;3.00;;;;;20.66;39.44;101222.72;5079846;27;45346;-67
2022/07/28 06:54:59;;;;;;;;;1.00;1.00;;;;;20.74;38.81;101229.34;5079461;27;45359;-66
2022/07/28 06:57:25;;;;;;;;;3.67;2.00;;;;;20.85;39.00;101220.31;5079538;27;45532;-66
2022/07/28 06:59:50;;;;;;;;;1.67;1.67;;;;;20.98;39.14;101223.66;5079831;27;46687;-67
2022/07/28 07:02:16;;;;;;;;;2.00;2.00;;;;;21.10;39.11;101227.13;5079586;27;47133;-67
2022/07/28 07:04:42;;;;;;;;;3.33;2.00;;;;;21.20;38.58;101221.75;5080045;27;45289;-67
2022/07/28 07:07:07;;;;;;;;;3.00;3.00;;;;;21.36;38.38;101219.41;5079542;27;45317;-66
2022/07/28 07:09:33;;;;;;;;;5.33;2.33;;;;;21.58;38.32;101221.06;5079941;27;46134;-67
2022/07/28 07:11:58;;;;;;;;;2.00;2.00;;;;;21.78;37.66;101221.97;5078649;27;68526;-68
2022/07/28 07:14:23;;;;;;;;;2.67;2.00;;;;;21.97;37.72;101234.66;5079324;27;64824;-67
2022/07/28 07:16:49;;;;;;;;;1.33;1.33;;;;;22.13;36.90;101233.25;5079688;27;45388;-68
2022/07/28 07:19:15;;;;;;;;;2.00;0.33;;;;;22.29;36.55;101233.53;5079756;27;47065;-67
2022/07/28 07:21:40;;;;;;;;;3.00;3.00;;;;;22.47;36.60;101238.25;5079391;27;45381;-67
2022/07/28 07:24:06;;;;;;;;;2.00;2.00;;;;;22.64;36.48;101233.97;5078980;27;67026;-68
2022/07/28 07:26:31;;;;;;;;;3.00;3.00;;;;;22.91;36.46;101230.47;5079226;27;45527;-67
2022/07/28 07:28:57;;;;;;;;;4.00;4.00;;;;;23.25;35.52;101229.09;5078526;27;69940;-67
2022/07/28 07:31:22;;;;;;;;;3.00;3.00;;;;;23.50;35.28;101229.41;5078184;27;71784;-68
2022/07/28 07:33:47;;;;;;;;;3.00;2.67;;;;;23.69;35.12;101237.44;5078791;27;66421;-68
2022/07/28 07:36:13;;;;;;;;;3.33;2.00;;;;;23.77;34.48;101226.66;5078705;27;65414;-68
2022/07/28 07:38:38;;;;;;;;;3.00;3.00;;;;;23.95;34.42;101229.44;5078550;27;66538;-67
2022/07/28 07:41:04;;;;;;;;;0.00;0.00;;;;;24.10;34.50;101229.75;5079193;27;45444;-68
2022/07/28 07:43:29;;;;;;;;;5.00;3.00;;;;;24.27;33.93;101233.50;5079565;27;45340;-67
2022/07/28 07:45:55;;;;;;;;;3.00;3.00;;;;;24.50;33.80;101232.97;5079430;27;45401;-68
2022/07/28 07:48:20;;;;;;;;;4.67;3.00;;;;;24.81;33.34;101224.41;5078903;27;45390;-68
2022/07/28 07:50:45;;;;;;;;;4.33;4.33;;;;;25.06;32.62;101225.41;5078801;27;49195;-68
2022/07/28 07:53:11;;;;;;;;;3.00;3.00;;;;;25.38;31.78;101228.47;5079273;27;45510;-68
2022/07/28 07:55:36;;;;;;;;;3.67;3.67;;;;;25.63;31.75;101220.38;5078187;27;67872;-68
2022/07/28 07:58:02;;;;;;;;;3.00;3.00;;;;;25.95;30.96;101225.06;5079265;27;45973;-68
2022/07/28 08:00:27;;;;;;;;;3.33;2.00;;;;;26.39;30.93;101221.22;5077810;28;45344;-68
2022/07/28 08:02:53;;;;;;;;;3.67;3.00;;;;;26.78;29.34;101220.50;5079154;27;45442;-68
2022/07/28 08:05:18;;;;;;;;;2.33;2.33;;;;;27.17;29.49;101218.84;5078585;27;53041;-69
2022/07/28 08:07:43;;;;;;;;;5.33;4.00;;;;;27.45;28.94;101213.81;5081197;27;46280;-68
2022/07/28 08:10:09;;;;;;;;;4.33;3.67;;;;;27.39;29.83;101217.25;5082352;28;45462;-68
2022/07/28 08:12:35;;;;;;;;;2.33;1.33;;;;;27.22;29.74;101214.59;5082469;27;45357;-68
2022/07/28 08:15:00;;;;;;;;;8.00;4.67;;;;;27.03;29.44;101215.00;5082629;27;45469;-67
2022/07/28 08:17:26;;;;;;;;;3.67;3.67;;;;;27.09;29.54;101217.00;5081829;28;45489;-69
2022/07/28 08:19:51;;;;;;;;;5.33;4.00;;;;;27.37;29.88;101213.84;5082293;27;45358;-70
2022/07/28 08:22:16;;;;;;;;;2.00;2.00;;;;;28.20;29.38;101206.88;5082486;27;45405;-69
2022/07/28 08:24:42;;;;;;;;;3.00;3.00;;;;;29.10;28.09;101212.53;5081427;27;67177;-69
2022/07/28 08:27:07;;;;;;;;;1.67;1.67;;;;;29.81;26.86;101213.84;5081169;27;67642;-70
2022/07/28 08:29:33;;;;;;;;;1.67;1.67;;;;;30.40;25.77;101215.47;5082348;27;45396;-70
2022/07/28 08:32:00;;;;;;;;;6.00;4.00;;;;;31.09;26.09;101213.88;5081472;27;63595;-70
2022/07/28 08:34:25;;;;;;;;;4.33;3.00;;;;;31.80;25.29;101207.22;5082075;27;45673;-70
2022/07/28 08:36:50;;;;;;;;;3.00;3.00;;;;;32.47;23.72;101204.53;5081807;27;45927;-71
2022/07/28 08:39:16;;;;;;;;;1.75;1.75;;;;;32.84;23.11;101203.25;5082112;27;45538;-70
2022/07/28 08:41:59;;;;;;;;;3.00;2.00;;;;;32.95;23.65;101202.59;5081315;27;58594;-70
2022/07/28 08:44:30;;;;;;;;;3.67;2.00;;;;;33.07;23.29;101206.38;5080581;28;45508;-70
2022/07/28 08:46:56;;;;;;;;;6.33;4.33;;;;;33.09;22.08;101208.91;5081922;27;46344;-69
2022/07/28 08:49:21;;;;;;;;;3.33;3.33;;;;;33.01;22.66;101207.25;5080695;27;73160;-69
2022/07/28 08:51:47;;;;;;;;;1.67;1.67;;;;;33.14;23.04;101203.59;5081276;27;63403;-69
2022/07/28 08:54:15;;;;;;;;;3.00;3.00;;;;;33.10;22.18;101205.97;5080598;28;45378;-70
2022/07/28 08:56:42;;;;;;;;;3.33;3.00;;;;;32.90;22.32;101194.97;5081791;27;46449;-69
2022/07/28 08:59:08;;;;;;;;;5.33;2.33;;;;;32.95;22.06;101197.09;5080154;28;48897;-70
2022/07/28 09:01:34;;;;;;;;;4.00;3.00;;;;;33.07;21.71;101203.63;5081742;27;45390;-70
2022/07/28 09:04:00;;;;;;;;;4.00;2.33;;;;;33.27;21.42;101202.72;5081830;28;45359;-70
2022/07/28 09:06:25;;;;;;;;;3.00;3.00;;;;;33.58;21.65;101203.88;5080141;28;45391;-70
2022/07/28 09:08:51;;;;;;;;;3.00;2.33;;;;;33.86;20.37;101197.16;5080108;28;45431;-69
2022/07/28 09:11:16;;;;;;;;;5.00;3.67;;;;;34.09;21.42;101202.94;5081604;27;45352;-70
2022/07/28 09:13:43;;;;;;;;;2.67;2.00;;;;;34.53;20.72;101196.66;5080794;27;66529;-70
2022/07/28 09:16:08;;;;;;;;;5.00;1.00;;;;;35.05;20.67;101204.63;5081285;28;45469;-71
2022/07/28 09:18:34;;;;;;;;;5.00;5.00;;;;;35.54;18.91;101197.22;5080576;27;45312;-70
2022/07/28 09:20:59;;;;;;;;;3.00;3.00;;;;;35.56;19.74;101197.81;5080287;28;45489;-71
2022/07/28 09:23:24;;;;;;;;;4.00;2.67;;;;;35.80;19.19;101199.84;5081577;27;45496;-71
2022/07/28 09:25:50;;;;;;;;;4.00;2.67;;;;;36.21;19.11;101196.22;5079013;28;72563;-71
2022/07/28 09:28:17;;;;;;;;;1.00;1.00;;;;;36.59;18.53;101194.94;5081055;27;45424;-71
2022/07/28 09:30:45;;;;;;;;;2.75;2.75;;;;;36.87;18.19;101190.63;5081124;27;45503;-70
2022/07/28 09:33:15;;;;;;;;;3.75;2.50;;;;;37.36;18.41;101193.03;5081279;27;45591;-71
2022/07/28 09:36:02;;;;;;;;;2.00;2.00;;;;;37.87;17.37;101195.13;5080847;27;46058;-71
2022/07/28 09:38:39;;;;;;;;;2.00;0.00;;;;;38.14;16.86;101189.75;5081005;27;45531;-72
2022/07/28 09:41:07;;;;;;;;;3.33;2.00;;;;;38.18;17.53;101184.53;5080840;27;45291;-72
2022/07/28 09:43:42;;;;;;;;;3.67;2.67;;;;;38.21;17.27;101184.88;5081213;27;45437;-73
2022/07/28 09:46:08;;;;;;;;;2.00;2.00;;;;;38.38;17.49;101175.72;5080851;27;47045;-72
2022/07/28 09:48:55;;;;;;;;;2.67;2.67;;;;;38.74;17.15;101183.78;5081103;27;45396;-72
2022/07/28 09:51:24;;;;;;;;;1.00;1.00;;;;;38.97;16.20;101182.66;5080750;27;45422;-72
2022/07/28 09:53:51;;;;;;;;;4.33;0.33;;;;;38.84;15.86;101181.09;5080952;27;45366;-71
2022/07/28 09:56:17;;;;;;;;;2.33;1.00;;;;;38.58;15.71;101182.66;5080345;27;45465;-72
2022/07/28 09:58:56;;;;;;;;;3.00;3.00;;;;;38.09;15.61;101170.25;5080658;27;45276;-72
2022/07/28 10:01:22;;;;;;;;;1.00;1.00;;;;;37.68;16.56;101173.13;5080848;27;45373;-72
2022/07/28 10:03:54;;;;;;;;;5.33;2.00;;;;;37.57;16.93;101176.78;5080824;27;45256;-73
2022/07/28 10:06:27;;;;;;;;;0.67;0.67;;;;;37.76;16.36;101171.00;5080517;27;46519;-72
2022/07/28 10:08:55;;;;;;;;;0.67;0.67;;;;;37.99;16.48;101170.06;5080785;27;45394;-72
2022/07/28 10:11:28;;;;;;;;;3.00;1.67;;;;;38.31;16.14;101169.50;5080721;27;45485;-70
2022/07/28 10:14:01;;;;;;;;;0.33;0.33;;;;;38.41;15.30;101166.88;5080672;27;45215;-71
2022/07/28 10:16:31;;;;;;;;;2.00;2.00;;;;;38.17;15.66;101171.75;5080389;27;46070;-72
2022/07/28 10:18:58;;;;;;;;;2.00;2.00;;;;;37.91;16.13;101163.00;5080518;27;45406;-72
2022/07/28 10:21:25;;;;;;;;;1.00;1.00;;;;;37.98;16.35;101162.81;5080523;27;45464;-73
2022/07/28 10:23:52;;;;;;;;;2.67;1.33;;;;;38.01;15.23;101162.34;5080745;27;45343;-72
2022/07/28 10:26:30;;;;;;;;;2.00;2.00;;;;;37.77;15.27;101164.38;5079927;27;46055;-71
2022/07/28 10:28:56;;;;;;;;;0.33;0.33;;;;;37.56;15.12;101162.09;5080148;28;45321;-71
2022/07/28 10:31:37;;;;;;;;;0.00;0.00;;;;;37.36;16.14;101161.69;5079078;27;45474;-72
2022/07/28 10:34:04;;;;;;;;;3.33;2.00;;;;;37.25;16.54;101150.38;5080667;27;45393;-71
2022/07/28 10:36:30;;;;;;;;;1.33;1.33;;;;;37.24;16.27;101157.00;5078547;28;45616;-71
2022/07/28 10:39:04;;;;;;;;;1.00;1.00;;;;;37.18;15.93;101148.84;5078784;28;45454;-70
2022/07/28 10:41:40;;;;;;;;;0.75;0.75;;;;;36.99;16.33;101157.34;5080443;27;45431;-70
2022/07/28 10:44:07;;;;;;;;;1.00;1.00;;;;;37.05;16.71;101150.81;5080469;27;45373;-72
2022/07/28 10:46:33;;;;;;;;;3.67;3.67;;;;;37.42;16.45;101155.19;5066196;28;45486;-72
2022/07/28 10:48:59;;;;;;;;;1.33;1.33;;;;;37.94;16.39;101158.88;5078786;28;45424;-71
2022/07/28 10:51:26;;;;;;;;;1.75;1.50;;;;;38.32;16.08;101154.53;5080233;28;45461;-72
2022/07/28 10:53:55;;;;;;;;;5.00;1.00;;;;;38.33;15.21;101156.19;5078877;28;45561;-73
2022/07/28 10:56:50;;;;;;;;;1.75;1.75;;;;;38.15;15.26;101147.03;5078385;28;46178;-71
2022/07/28 10:59:38;;;;;;;;;1.00;1.00;;;;;37.99;15.75;101147.88;5079757;27;45454;-72
2022/07/28 11:02:03;;;;;;;;;0.00;0.00;;;;;37.83;15.17;101149.53;5079869;27;45732;-70
2022/07/28 11:04:44;;;;;;;;;2.00;2.00;;;;;37.59;15.78;101149.66;5078951;27;66013;-70
2022/07/28 11:07:11;;;;;;;;;1.00;1.00;;;;;37.36;15.76;101148.66;5079426;27;45506;-71
2022/07/28 11:09:36;;;;;;;;;4.00;4.00;;;;;37.02;15.76;101150.47;5079775;27;45405;-70
2022/07/28 11:12:02;;;;;;;;;1.00;1.00;;;;;36.81;16.33;101143.63;5077462;28;69489;-71
2022/07/28 11:14:30;;;;;;;;;0.00;0.00;;;;;37.02;16.22;101142.16;5078844;28;45396;-72
2022/07/28 11:16:59;;;;;;;;;1.00;1.00;;;;;37.52;15.62;101149.81;5079980;27;47090;-72
2022/07/28 11:19:24;;;;;;;;;0.00;0.00;;;;;38.03;15.33;101146.25;5079726;28;45488;-72
2022/07/28 11:22:15;;;;;;;;;1.00;1.00;;;;;38.60;15.34;101141.59;5078934;28;59316;-71
2022/07/28 11:24:55;;;;;;;;;0.00;0.00;;;;;39.30;14.69;101142.78;5079761;27;45457;-72
2022/07/28 11:27:44;;;;;;;;;0.67;0.67;;;;;39.84;14.17;101143.88;5079009;27;46291;-73
2022/07/28 11:30:12;;;;;;;;;0.00;0.00;;;;;40.16;13.59;101131.91;5079379;27;45366;-71
2022/07/28 11:33:08;;;;;;;;;0.33;0.33;;;;;40.65;13.91;101134.47;5079768;27;45382;-72